CPX621 Details

Departure: Yeager Airport (KCRW)
Arrival: Washington Dulles International Airport (KIAD)
Route: CSN270073 DOCCS DOCCS3


Current Weather Information
KCRW 191554Z 18003KT 10SM SCT150 31/19 A3009 RMK AO2 SLP178 T03060189
KIAD 191552Z VRB04KT 10SM FEW140 SCT250 32/21 A3002 RMK AO2 SLP163 T03170206